sensor_id;sensor_type;location;lat;lon;timestamp;pressure;altitude;pressure_sealevel;temperature;humidity
23996;BME280;12207;50.076;8.848;2024-02-28T00:01:29;100179.19;;;4.14;100.00
23996;BME280;12207;50.076;8.848;2024-02-28T00:03:55;100181.81;;;4.22;100.00
23996;BME280;12207;50.076;8.848;2024-02-28T00:06:21;100176.50;;;4.22;100.00
23996;BME280;12207;50.076;8.848;2024-02-28T00:08:47;100175.69;;;4.22;100.00
23996;BME280;12207;50.076;8.848;2024-02-28T00:11:13;100172.72;;;4.17;100.00
23996;BME280;12207;50.076;8.848;2024-02-28T00:13:39;100180.19;;;4.13;100.00
23996;BME280;12207;50.076;8.848;2024-02-28T00:16:05;100177.88;;;4.02;100.00
23996;BME280;12207;50.076;8.848;2024-02-28T00:18:35;100180.56;;;3.94;100.00
23996;BME280;12207;50.076;8.848;2024-02-28T00:21:01;100181.91;;;3.90;100.00
23996;BME280;12207;50.076;8.848;2024-02-28T00:23:28;100187.38;;;3.80;100.00
23996;BME280;12207;50.076;8.848;2024-02-28T00:25:54;100192.19;;;3.76;100.00
23996;BME280;12207;50.076;8.848;2024-02-28T00:28:20;100192.84;;;3.70;100.00
23996;BME280;12207;50.076;8.848;2024-02-28T00:30:46;100198.50;;;3.67;100.00
23996;BME280;12207;50.076;8.848;2024-02-28T00:33:12;100201.81;;;3.69;100.00
23996;BME280;12207;50.076;8.848;2024-02-28T00:35:40;100201.81;;;3.69;100.00
23996;BME280;12207;50.076;8.848;2024-02-28T00:38:06;100200.16;;;3.68;100.00
23996;BME280;12207;50.076;8.848;2024-02-28T00:40:32;100202.47;;;3.71;100.00
23996;BME280;12207;50.076;8.848;2024-02-28T00:42:58;100207.28;;;3.76;100.00
23996;BME280;12207;50.076;8.848;2024-02-28T00:45:24;100205.63;;;3.75;100.00
23996;BME280;12207;50.076;8.848;2024-02-28T00:47:51;100205.44;;;3.76;100.00
23996;BME280;12207;50.076;8.848;2024-02-28T00:50:17;100225.16;;;3.74;100.00
23996;BME280;12207;50.076;8.848;2024-02-28T00:52:43;100223.16;;;3.76;100.00
23996;BME280;12207;50.076;8.848;2024-02-28T00:55:09;100223.50;;;3.73;100.00
23996;BME280;12207;50.076;8.848;2024-02-28T00:57:35;100224.66;;;3.70;100.00
23996;BME280;12207;50.076;8.848;2024-02-28T01:00:01;100221.34;;;3.68;100.00
23996;BME280;12207;50.076;8.848;2024-02-28T01:02:27;100221.34;;;3.68;100.00
23996;BME280;12207;50.076;8.848;2024-02-28T01:04:53;100226.31;;;3.63;100.00
23996;BME280;12207;50.076;8.848;2024-02-28T01:07:19;100222.66;;;3.64;100.00
23996;BME280;12207;50.076;8.848;2024-02-28T01:09:45;100228.28;;;3.61;100.00
23996;BME280;12207;50.076;8.848;2024-02-28T01:12:11;100229.59;;;3.57;100.00
23996;BME280;12207;50.076;8.848;2024-02-28T01:14:37;100234.56;;;3.60;100.00
23996;BME280;12207;50.076;8.848;2024-02-28T01:17:03;100236.56;;;3.58;100.00
23996;BME280;12207;50.076;8.848;2024-02-28T01:19:30;100240.03;;;3.59;100.00
23996;BME280;12207;50.076;8.848;2024-02-28T01:21:57;100246.84;;;3.53;100.00
23996;BME280;12207;50.076;8.848;2024-02-28T01:24:23;100243.03;;;3.48;100.00
23996;BME280;12207;50.076;8.848;2024-02-28T01:26:49;100239.22;;;3.42;100.00
23996;BME280;12207;50.076;8.848;2024-02-28T01:29:15;100247.47;;;3.39;100.00
23996;BME280;12207;50.076;8.848;2024-02-28T01:31:42;100250.09;;;3.31;100.00
23996;BME280;12207;50.076;8.848;2024-02-28T01:34:08;100247.81;;;3.28;100.00
23996;BME280;12207;50.076;8.848;2024-02-28T01:36:34;100247.47;;;3.23;100.00
23996;BME280;12207;50.076;8.848;2024-02-28T01:39:00;100250.44;;;3.20;100.00
23996;BME280;12207;50.076;8.848;2024-02-28T01:41:26;100241.63;;;3.11;100.00
23996;BME280;12207;50.076;8.848;2024-02-28T01:43:52;100243.47;;;3.19;100.00
23996;BME280;12207;50.076;8.848;2024-02-28T01:46:27;100252.25;;;3.19;100.00
23996;BME280;12207;50.076;8.848;2024-02-28T01:48:56;100252.09;;;3.21;100.00
23996;BME280;12207;50.076;8.848;2024-02-28T01:51:25;100258.38;;;3.20;100.00
23996;BME280;12207;50.076;8.848;2024-02-28T01:53:53;100256.84;;;3.09;100.00
23996;BME280;12207;50.076;8.848;2024-02-28T01:56:23;100257.69;;;3.09;100.00
23996;BME280;12207;50.076;8.848;2024-02-28T01:58:51;100250.09;;;3.06;100.00
23996;BME280;12207;50.076;8.848;2024-02-28T02:01:21;100252.75;;;3.06;100.00
23996;BME280;12207;50.076;8.848;2024-02-28T02:03:47;100247.44;;;3.06;100.00
23996;BME280;12207;50.076;8.848;2024-02-28T02:06:14;100252.06;;;3.04;100.00
23996;BME280;12207;50.076;8.848;2024-02-28T02:08:41;100246.75;;;2.96;100.00
23996;BME280;12207;50.076;8.848;2024-02-28T02:11:10;100257.31;;;2.96;100.00
23996;BME280;12207;50.076;8.848;2024-02-28T02:13:53;100252.34;;;2.93;100.00
23996;BME280;12207;50.076;8.848;2024-02-28T02:16:20;100260.97;;;2.95;100.00
23996;BME280;12207;50.076;8.848;2024-02-28T02:18:52;100256.50;;;2.96;100.00
23996;BME280;12207;50.076;8.848;2024-02-28T02:21:20;100253.66;;;2.89;100.00
23996;BME280;12207;50.076;8.848;2024-02-28T02:23:48;100248.53;;;2.88;100.00
23996;BME280;12207;50.076;8.848;2024-02-28T02:26:14;100255.78;;;2.86;100.00
23996;BME280;12207;50.076;8.848;2024-02-28T02:28:40;100259.09;;;2.80;100.00
23996;BME280;12207;50.076;8.848;2024-02-28T02:31:07;100251.47;;;2.77;100.00
23996;BME280;12207;50.076;8.848;2024-02-28T02:33:33;100257.59;;;2.77;100.00
23996;BME280;12207;50.076;8.848;2024-02-28T02:35:59;100260.72;;;2.72;100.00
23996;BME280;12207;50.076;8.848;2024-02-28T02:38:27;100267.16;;;2.70;100.00
23996;BME280;12207;50.076;8.848;2024-02-28T02:40:53;100261.81;;;2.62;100.00
23996;BME280;12207;50.076;8.848;2024-02-28T02:43:19;100260.66;;;2.56;100.00
23996;BME280;12207;50.076;8.848;2024-02-28T02:45:46;100266.56;;;2.50;100.00
23996;BME280;12207;50.076;8.848;2024-02-28T02:48:12;100270.34;;;2.48;100.00
23996;BME280;12207;50.076;8.848;2024-02-28T02:50:38;100263.72;;;2.44;100.00
23996;BME280;12207;50.076;8.848;2024-02-28T02:53:06;100271.97;;;2.40;100.00
23996;BME280;12207;50.076;8.848;2024-02-28T02:55:33;100273.16;;;2.46;100.00
23996;BME280;12207;50.076;8.848;2024-02-28T02:57:59;100275.78;;;2.46;100.00
23996;BME280;12207;50.076;8.848;2024-02-28T03:00:26;100280.03;;;2.39;100.00
23996;BME280;12207;50.076;8.848;2024-02-28T03:02:52;100276.25;;;2.33;100.00
23996;BME280;12207;50.076;8.848;2024-02-28T03:05:18;100286.81;;;2.33;100.00
23996;BME280;12207;50.076;8.848;2024-02-28T03:07:44;100291.94;;;2.35;100.00
23996;BME280;12207;50.076;8.848;2024-02-28T03:10:10;100294.00;;;2.23;100.00
23996;BME280;12207;50.076;8.848;2024-02-28T03:12:36;100294.16;;;2.22;100.00
23996;BME280;12207;50.076;8.848;2024-02-28T03:15:02;100291.66;;;2.20;100.00
23996;BME280;12207;50.076;8.848;2024-02-28T03:17:29;100298.41;;;2.15;100.00
23996;BME280;12207;50.076;8.848;2024-02-28T03:19:55;100305.34;;;2.16;100.00
23996;BME280;12207;50.076;8.848;2024-02-28T03:22:22;100305.19;;;2.17;100.00
23996;BME280;12207;50.076;8.848;2024-02-28T03:24:48;100302.03;;;2.14;100.00
23996;BME280;12207;50.076;8.848;2024-02-28T03:27:14;100302.25;;;2.20;100.00
23996;BME280;12207;50.076;8.848;2024-02-28T03:29:40;100297.41;;;2.16;100.00
23996;BME280;12207;50.076;8.848;2024-02-28T03:32:07;100306.84;;;2.18;100.00
23996;BME280;12207;50.076;8.848;2024-02-28T03:34:33;100312.59;;;2.14;100.00
23996;BME280;12207;50.076;8.848;2024-02-28T03:36:59;100311.59;;;2.15;100.00
23996;BME280;12207;50.076;8.848;2024-02-28T03:39:25;100307.31;;;2.14;100.00
23996;BME280;12207;50.076;8.848;2024-02-28T03:41:51;100303.69;;;2.15;100.00
23996;BME280;12207;50.076;8.848;2024-02-28T03:44:17;100309.13;;;2.13;100.00
23996;BME280;12207;50.076;8.848;2024-02-28T03:46:43;100312.09;;;2.10;100.00
23996;BME280;12207;50.076;8.848;2024-02-28T03:49:09;100322.34;;;2.13;100.00
23996;BME280;12207;50.076;8.848;2024-02-28T03:51:41;100329.63;;;2.11;100.00
23996;BME280;12207;50.076;8.848;2024-02-28T03:54:08;100337.47;;;2.03;100.00
23996;BME280;12207;50.076;8.848;2024-02-28T03:56:34;100339.72;;;1.98;100.00
23996;BME280;12207;50.076;8.848;2024-02-28T03:59:01;100333.75;;;1.96;100.00
23996;BME280;12207;50.076;8.848;2024-02-28T04:01:27;100332.25;;;1.93;100.00
23996;BME280;12207;50.076;8.848;2024-02-28T04:03:53;100342.00;;;1.93;100.00
23996;BME280;12207;50.076;8.848;2024-02-28T04:06:19;100348.22;;;1.84;100.00
23996;BME280;12207;50.076;8.848;2024-02-28T04:08:45;100337.94;;;1.81;100.00
23996;BME280;12207;50.076;8.848;2024-02-28T04:11:11;100347.53;;;1.82;100.00
23996;BME280;12207;50.076;8.848;2024-02-28T04:13:37;100350.47;;;1.79;100.00
23996;BME280;12207;50.076;8.848;2024-02-28T04:16:04;100345.63;;;1.74;100.00
23996;BME280;12207;50.076;8.848;2024-02-28T04:18:33;100347.75;;;1.70;100.00
23996;BME280;12207;50.076;8.848;2024-02-28T04:20:59;100348.03;;;1.67;100.00
23996;BME280;12207;50.076;8.848;2024-02-28T04:23:25;100343.59;;;1.68;100.00
23996;BME280;12207;50.076;8.848;2024-02-28T04:25:51;100341.91;;;1.67;100.00
23996;BME280;12207;50.076;8.848;2024-02-28T04:28:17;100331.69;;;1.64;100.00
23996;BME280;12207;50.076;8.848;2024-02-28T04:30:46;100337.13;;;1.62;100.00
23996;BME280;12207;50.076;8.848;2024-02-28T04:33:12;100334.16;;;1.65;100.00
23996;BME280;12207;50.076;8.848;2024-02-28T04:35:41;100338.31;;;1.68;100.00
23996;BME280;12207;50.076;8.848;2024-02-28T04:38:07;100342.06;;;1.65;100.00
23996;BME280;12207;50.076;8.848;2024-02-28T04:40:34;100353.09;;;1.61;100.00
23996;BME280;12207;50.076;8.848;2024-02-28T04:43:01;100348.28;;;1.56;100.00
23996;BME280;12207;50.076;8.848;2024-02-28T04:45:27;100353.03;;;1.53;100.00
23996;BME280;12207;50.076;8.848;2024-02-28T04:47:53;100361.78;;;1.53;100.00
23996;BME280;12207;50.076;8.848;2024-02-28T04:50:21;100369.28;;;1.48;100.00
23996;BME280;12207;50.076;8.848;2024-02-28T04:52:47;100372.78;;;1.49;100.00
23996;BME280;12207;50.076;8.848;2024-02-28T04:55:13;100374.03;;;1.45;100.00
23996;BME280;12207;50.076;8.848;2024-02-28T04:57:39;100385.53;;;1.53;100.00
23996;BME280;12207;50.076;8.848;2024-02-28T05:00:05;100393.19;;;1.47;100.00
23996;BME280;12207;50.076;8.848;2024-02-28T05:02:33;100389.38;;;1.41;100.00
23996;BME280;12207;50.076;8.848;2024-02-28T05:04:59;100393.97;;;1.39;100.00
23996;BME280;12207;50.076;8.848;2024-02-28T05:07:25;100402.19;;;1.36;100.00
23996;BME280;12207;50.076;8.848;2024-02-28T05:09:51;100406.09;;;1.32;100.00
23996;BME280;12207;50.076;8.848;2024-02-28T05:12:17;100410.66;;;1.30;100.00
23996;BME280;12207;50.076;8.848;2024-02-28T05:14:43;100411.66;;;1.29;100.00
23996;BME280;12207;50.076;8.848;2024-02-28T05:17:09;100413.16;;;1.31;100.00
23996;BME280;12207;50.076;8.848;2024-02-28T05:19:35;100418.31;;;1.33;100.00
23996;BME280;12207;50.076;8.848;2024-02-28T05:22:02;100426.66;;;1.28;100.00
23996;BME280;12207;50.076;8.848;2024-02-28T05:24:31;100425.00;;;1.27;100.00
23996;BME280;12207;50.076;8.848;2024-02-28T05:26:57;100420.81;;;1.25;100.00
23996;BME280;12207;50.076;8.848;2024-02-28T05:29:24;100418.03;;;1.26;100.00
23996;BME280;12207;50.076;8.848;2024-02-28T05:31:52;100415.56;;;1.25;100.00
23996;BME280;12207;50.076;8.848;2024-02-28T05:34:18;100419.44;;;1.21;100.00
23996;BME280;12207;50.076;8.848;2024-02-28T05:36:44;100423.06;;;1.20;100.00
23996;BME280;12207;50.076;8.848;2024-02-28T05:39:11;100421.41;;;1.19;100.00
23996;BME280;12207;50.076;8.848;2024-02-28T05:41:37;100435.06;;;1.14;100.00
23996;BME280;12207;50.076;8.848;2024-02-28T05:44:03;100422.84;;;1.13;100.00
23996;BME280;12207;50.076;8.848;2024-02-28T05:46:29;100429.94;;;1.13;100.00
23996;BME280;12207;50.076;8.848;2024-02-28T05:48:55;100434.50;;;1.11;100.00
23996;BME280;12207;50.076;8.848;2024-02-28T05:51:21;100439.09;;;1.09;100.00
23996;BME280;12207;50.076;8.848;2024-02-28T05:53:48;100442.03;;;1.06;100.00
23996;BME280;12207;50.076;8.848;2024-02-28T05:56:14;100442.72;;;1.08;100.00
23996;BME280;12207;50.076;8.848;2024-02-28T05:58:44;100449.50;;;1.10;100.00
23996;BME280;12207;50.076;8.848;2024-02-28T06:01:11;100449.78;;;1.07;100.00
23996;BME280;12207;50.076;8.848;2024-02-28T06:03:38;100457.84;;;1.06;100.00
23996;BME280;12207;50.076;8.848;2024-02-28T06:06:04;100469.25;;;1.06;100.00
23996;BME280;12207;50.076;8.848;2024-02-28T06:08:37;100469.53;;;1.03;100.00
23996;BME280;12207;50.076;8.848;2024-02-28T06:11:03;100468.41;;;1.06;100.00
23996;BME280;12207;50.076;8.848;2024-02-28T06:13:29;100474.66;;;1.05;100.00
23996;BME280;12207;50.076;8.848;2024-02-28T06:15:56;100473.69;;;1.06;100.00
23996;BME280;12207;50.076;8.848;2024-02-28T06:18:23;100475.84;;;1.20;100.00
23996;BME280;12207;50.076;8.848;2024-02-28T06:20:50;100476.25;;;1.25;100.00
23996;BME280;12207;50.076;8.848;2024-02-28T06:23:16;100479.16;;;1.31;100.00
23996;BME280;12207;50.076;8.848;2024-02-28T06:25:43;100475.41;;;1.34;100.00
23996;BME280;12207;50.076;8.848;2024-02-28T06:28:09;100479.63;;;1.45;100.00
23996;BME280;12207;50.076;8.848;2024-02-28T06:30:36;100485.47;;;1.48;100.00
23996;BME280;12207;50.076;8.848;2024-02-28T06:33:02;100490.75;;;1.48;100.00
23996;BME280;12207;50.076;8.848;2024-02-28T06:35:29;100493.78;;;1.53;100.00
23996;BME280;12207;50.076;8.848;2024-02-28T06:37:55;100499.31;;;1.60;100.00
23996;BME280;12207;50.076;8.848;2024-02-28T06:40:21;100497.59;;;1.68;100.00
23996;BME280;12207;50.076;8.848;2024-02-28T06:42:47;100501.13;;;1.87;100.00
23996;BME280;12207;50.076;8.848;2024-02-28T06:45:13;100505.22;;;1.99;100.00
23996;BME280;12207;50.076;8.848;2024-02-28T06:47:39;100507.34;;;2.13;100.00
23996;BME280;12207;50.076;8.848;2024-02-28T06:50:06;100513.78;;;2.28;100.00
23996;BME280;12207;50.076;8.848;2024-02-28T06:52:33;100519.38;;;2.43;100.00
23996;BME280;12207;50.076;8.848;2024-02-28T06:55:00;100533.75;;;2.58;100.00
23996;BME280;12207;50.076;8.848;2024-02-28T06:57:29;100527.06;;;2.72;100.00
23996;BME280;12207;50.076;8.848;2024-02-28T06:59:58;100535.00;;;2.72;100.00
23996;BME280;12207;50.076;8.848;2024-02-28T07:02:24;100526.78;;;2.75;100.00
23996;BME280;12207;50.076;8.848;2024-02-28T07:04:50;100524.84;;;2.85;100.00
23996;BME280;12207;50.076;8.848;2024-02-28T07:07:16;100530.59;;;2.98;100.00
23996;BME280;12207;50.076;8.848;2024-02-28T07:09:42;100538.19;;;3.19;100.00
23996;BME280;12207;50.076;8.848;2024-02-28T07:12:09;100547.50;;;3.31;100.00
23996;BME280;12207;50.076;8.848;2024-02-28T07:14:35;100547.50;;;3.57;100.00
23996;BME280;12207;50.076;8.848;2024-02-28T07:17:01;100550.44;;;3.80;100.00
23996;BME280;12207;50.076;8.848;2024-02-28T07:19:27;100556.91;;;3.86;100.00
23996;BME280;12207;50.076;8.848;2024-02-28T07:21:53;100553.06;;;3.80;100.00
23996;BME280;12207;50.076;8.848;2024-02-28T07:24:19;100540.66;;;3.81;100.00
23996;BME280;12207;50.076;8.848;2024-02-28T07:26:46;100536.28;;;3.63;100.00
23996;BME280;12207;50.076;8.848;2024-02-28T07:29:12;100548.38;;;3.66;100.00
23996;BME280;12207;50.076;8.848;2024-02-28T07:31:38;100553.06;;;3.80;100.00
23996;BME280;12207;50.076;8.848;2024-02-28T07:34:06;100548.69;;;3.97;100.00
23996;BME280;12207;50.076;8.848;2024-02-28T07:36:33;100555.19;;;4.10;100.00
23996;BME280;12207;50.076;8.848;2024-02-28T07:39:00;100561.69;;;4.16;100.00
23996;BME280;12207;50.076;8.848;2024-02-28T07:41:26;100563.16;;;4.10;100.00
23996;BME280;12207;50.076;8.848;2024-02-28T07:43:53;100567.84;;;4.25;100.00
23996;BME280;12207;50.076;8.848;2024-02-28T07:46:19;100571.81;;;4.21;100.00
23996;BME280;12207;50.076;8.848;2024-02-28T07:48:45;100571.34;;;4.33;100.00
23996;BME280;12207;50.076;8.848;2024-02-28T07:51:11;100575.34;;;4.45;100.00
23996;BME280;12207;50.076;8.848;2024-02-28T07:53:37;100569.72;;;4.49;100.00
23996;BME280;12207;50.076;8.848;2024-02-28T07:56:07;100566.41;;;4.47;100.00
23996;BME280;12207;50.076;8.848;2024-02-28T07:58:40;100561.44;;;4.60;100.00
23996;BME280;12207;50.076;8.848;2024-02-28T08:01:09;100562.09;;;4.54;100.00
23996;BME280;12207;50.076;8.848;2024-02-28T08:03:35;100560.75;;;4.50;100.00
23996;BME280;12207;50.076;8.848;2024-02-28T08:06:01;100561.44;;;4.60;100.00
23996;BME280;12207;50.076;8.848;2024-02-28T08:08:28;100571.19;;;4.43;100.00
23996;BME280;12207;50.076;8.848;2024-02-28T08:10:54;100564.22;;;4.50;100.00
23996;BME280;12207;50.076;8.848;2024-02-28T08:13:21;100563.44;;;4.58;100.00
23996;BME280;12207;50.076;8.848;2024-02-28T08:15:47;100561.97;;;4.71;100.00
23996;BME280;12207;50.076;8.848;2024-02-28T08:27:40;100585.84;;;5.20;98.44
23996;BME280;12207;50.076;8.848;2024-02-28T08:30:06;100584.22;;;5.11;98.13
23996;BME280;12207;50.076;8.848;2024-02-28T08:32:33;100582.53;;;5.42;97.54
23996;BME280;12207;50.076;8.848;2024-02-28T08:34:59;100575.84;;;5.46;96.65
23996;BME280;12207;50.076;8.848;2024-02-28T08:37:25;100583.50;;;5.49;95.74
23996;BME280;12207;50.076;8.848;2024-02-28T08:39:54;100582.25;;;5.76;95.57
23996;BME280;12207;50.076;8.848;2024-02-28T08:42:25;100584.06;;;6.31;91.97
23996;BME280;12207;50.076;8.848;2024-02-28T08:44:52;100578.00;;;6.45;91.57
23996;BME280;12207;50.076;8.848;2024-02-28T08:47:23;100581.94;;;7.03;89.51
23996;BME280;12207;50.076;8.848;2024-02-28T08:49:50;100585.16;;;7.13;87.64
23996;BME280;12207;50.076;8.848;2024-02-28T08:52:16;100594.47;;;7.17;86.19
23996;BME280;12207;50.076;8.848;2024-02-28T08:54:42;100585.69;;;7.09;85.15
23996;BME280;12207;50.076;8.848;2024-02-28T08:57:08;100586.75;;;7.23;85.10
23996;BME280;12207;50.076;8.848;2024-02-28T08:59:34;100594.50;;;7.32;84.89
23996;BME280;12207;50.076;8.848;2024-02-28T09:02:00;100586.66;;;6.93;87.47
23996;BME280;12207;50.076;8.848;2024-02-28T09:04:27;100585.56;;;7.25;85.83
23996;BME280;12207;50.076;8.848;2024-02-28T09:06:53;100588.91;;;7.27;84.82
23996;BME280;12207;50.076;8.848;2024-02-28T09:09:19;100599.31;;;6.91;85.87
23996;BME280;12207;50.076;8.848;2024-02-28T09:11:45;100602.91;;;7.06;85.33
23996;BME280;12207;50.076;8.848;2024-02-28T09:14:11;100618.81;;;7.14;85.77
23996;BME280;12207;50.076;8.848;2024-02-28T09:16:38;100624.25;;;6.44;87.61
23996;BME280;12207;50.076;8.848;2024-02-28T09:19:07;100624.06;;;6.77;87.96
23996;BME280;12207;50.076;8.848;2024-02-28T09:21:34;100622.78;;;6.03;90.71
23996;BME280;12207;50.076;8.848;2024-02-28T09:24:00;100625.91;;;6.99;88.90
23996;BME280;12207;50.076;8.848;2024-02-28T09:26:27;100625.28;;;7.35;86.37
23996;BME280;12207;50.076;8.848;2024-02-28T09:28:53;100634.88;;;7.06;86.89
23996;BME280;12207;50.076;8.848;2024-02-28T09:31:19;100632.78;;;6.63;87.59
23996;BME280;12207;50.076;8.848;2024-02-28T09:33:45;100634.16;;;5.48;92.63
23996;BME280;12207;50.076;8.848;2024-02-28T09:36:12;100643.47;;;5.11;95.84
23996;BME280;12207;50.076;8.848;2024-02-28T09:38:38;100638.63;;;4.91;98.63
23996;BME280;12207;50.076;8.848;2024-02-28T09:41:05;100644.13;;;5.13;98.62
23996;BME280;12207;50.076;8.848;2024-02-28T09:43:32;100640.13;;;5.01;98.89
23996;BME280;12207;50.076;8.848;2024-02-28T09:46:03;100653.19;;;4.28;100.00
23996;BME280;12207;50.076;8.848;2024-02-28T09:48:30;100645.09;;;4.96;99.78
23996;BME280;12207;50.076;8.848;2024-02-28T09:51:03;100644.09;;;4.97;99.79
23996;BME280;12207;50.076;8.848;2024-02-28T09:53:30;100646.47;;;5.41;99.39
23996;BME280;12207;50.076;8.848;2024-02-28T09:55:56;100648.28;;;5.16;99.34
23996;BME280;12207;50.076;8.848;2024-02-28T09:58:23;100650.09;;;5.48;98.23
23996;BME280;12207;50.076;8.848;2024-02-28T10:00:50;100653.78;;;5.39;97.70
23996;BME280;12207;50.076;8.848;2024-02-28T10:03:18;100664.53;;;5.45;97.89
23996;BME280;12207;50.076;8.848;2024-02-28T10:05:46;100648.78;;;5.20;98.40
23996;BME280;12207;50.076;8.848;2024-02-28T10:08:12;100653.28;;;5.19;99.08
23996;BME280;12207;50.076;8.848;2024-02-28T10:10:48;100663.50;;;4.82;99.19
23996;BME280;12207;50.076;8.848;2024-02-28T10:13:20;100673.09;;;4.66;100.00
23996;BME280;12207;50.076;8.848;2024-02-28T10:15:47;100663.94;;;4.61;100.00
23996;BME280;12207;50.076;8.848;2024-02-28T10:18:13;100676.25;;;4.78;100.00
23996;BME280;12207;50.076;8.848;2024-02-28T10:20:39;100674.31;;;4.88;100.00
23996;BME280;12207;50.076;8.848;2024-02-28T10:23:06;100677.34;;;5.18;100.00
23996;BME280;12207;50.076;8.848;2024-02-28T10:25:44;100669.34;;;4.93;99.46
23996;BME280;12207;50.076;8.848;2024-02-28T10:28:11;100663.41;;;5.32;98.80
23996;BME280;12207;50.076;8.848;2024-02-28T10:30:41;100677.31;;;5.74;98.63
23996;BME280;12207;50.076;8.848;2024-02-28T10:33:15;100680.47;;;6.02;96.22
23996;BME280;12207;50.076;8.848;2024-02-28T10:35:42;100682.03;;;6.28;95.08
23996;BME280;12207;50.076;8.848;2024-02-28T10:38:13;100684.47;;;6.45;92.62
23996;BME280;12207;50.076;8.848;2024-02-28T10:40:43;100676.91;;;6.18;92.27
23996;BME280;12207;50.076;8.848;2024-02-28T10:43:10;100685.28;;;5.82;94.82
23996;BME280;12207;50.076;8.848;2024-02-28T10:45:37;100686.44;;;6.12;94.28
23996;BME280;12207;50.076;8.848;2024-02-28T10:48:07;100688.72;;;6.63;92.31
23996;BME280;12207;50.076;8.848;2024-02-28T10:50:33;100692.03;;;6.65;91.13
23996;BME280;12207;50.076;8.848;2024-02-28T10:53:02;100679.16;;;7.07;89.84
23996;BME280;12207;50.076;8.848;2024-02-28T10:55:37;100685.19;;;7.01;89.40
23996;BME280;12207;50.076;8.848;2024-02-28T10:58:10;100687.88;;;6.93;88.24
23996;BME280;12207;50.076;8.848;2024-02-28T11:00:38;100683.22;;;7.41;86.88
23996;BME280;12207;50.076;8.848;2024-02-28T11:03:05;100670.94;;;8.21;85.79
23996;BME280;12207;50.076;8.848;2024-02-28T11:05:39;100687.31;;;8.99;81.64
23996;BME280;12207;50.076;8.848;2024-02-28T11:08:09;100684.88;;;8.46;82.32
23996;BME280;12207;50.076;8.848;2024-02-28T11:10:40;100681.63;;;8.66;81.74
23996;BME280;12207;50.076;8.848;2024-02-28T11:13:06;100679.25;;;8.41;81.68
23996;BME280;12207;50.076;8.848;2024-02-28T11:15:32;100690.34;;;8.30;81.65
23996;BME280;12207;50.076;8.848;2024-02-28T11:18:09;100688.19;;;9.20;78.87
23996;BME280;12207;50.076;8.848;2024-02-28T11:20:35;100680.66;;;9.09;78.67
23996;BME280;12207;50.076;8.848;2024-02-28T11:23:01;100689.06;;;8.55;79.71
23996;BME280;12207;50.076;8.848;2024-02-28T11:25:28;100683.06;;;7.95;82.74
23996;BME280;12207;50.076;8.848;2024-02-28T11:27:54;100680.88;;;8.13;82.39
23996;BME280;12207;50.076;8.848;2024-02-28T11:30:21;100684.25;;;8.80;80.63
23996;BME280;12207;50.076;8.848;2024-02-28T11:32:47;100685.75;;;9.47;78.61
23996;BME280;12207;50.076;8.848;2024-02-28T11:35:13;100692.13;;;9.24;76.84
23996;BME280;12207;50.076;8.848;2024-02-28T11:37:39;100691.88;;;9.41;76.28
23996;BME280;12207;50.076;8.848;2024-02-28T11:40:09;100682.78;;;9.35;76.51
23996;BME280;12207;50.076;8.848;2024-02-28T11:42:38;100688.56;;;8.96;77.73
23996;BME280;12207;50.076;8.848;2024-02-28T11:45:13;100679.91;;;9.37;77.99
23996;BME280;12207;50.076;8.848;2024-02-28T11:47:39;100672.28;;;9.12;78.83
23996;BME280;12207;50.076;8.848;2024-02-28T11:50:06;100673.66;;;9.30;79.77
23996;BME280;12207;50.076;8.848;2024-02-28T11:52:35;100673.66;;;9.30;78.38
23996;BME280;12207;50.076;8.848;2024-02-28T11:55:02;100679.69;;;9.60;76.17
23996;BME280;12207;50.076;8.848;2024-02-28T11:57:28;100672.72;;;9.37;76.90
23996;BME280;12207;50.076;8.848;2024-02-28T11:59:56;100668.69;;;9.05;78.09
23996;BME280;12207;50.076;8.848;2024-02-28T12:02:23;100660.19;;;8.44;81.75
23996;BME280;12207;50.076;8.848;2024-02-28T12:04:54;100655.47;;;8.97;80.09
23996;BME280;12207;50.076;8.848;2024-02-28T12:07:21;100649.22;;;9.11;80.17
23996;BME280;12207;50.076;8.848;2024-02-28T12:09:47;100659.09;;;8.75;79.48
23996;BME280;12207;50.076;8.848;2024-02-28T12:12:15;100668.84;;;8.97;80.11
23996;BME280;12207;50.076;8.848;2024-02-28T12:14:42;100663.44;;;8.76;79.55
23996;BME280;12207;50.076;8.848;2024-02-28T12:17:10;100661.41;;;8.78;80.21
23996;BME280;12207;50.076;8.848;2024-02-28T12:19:36;100654.00;;;8.59;79.99
23996;BME280;12207;50.076;8.848;2024-02-28T12:22:02;100648.81;;;8.72;79.68
23996;BME280;12207;50.076;8.848;2024-02-28T12:24:28;100646.47;;;8.83;78.55
23996;BME280;12207;50.076;8.848;2024-02-28T12:26:54;100639.03;;;9.00;79.33
23996;BME280;12207;50.076;8.848;2024-02-28T12:29:23;100633.44;;;8.59;79.68
23996;BME280;12207;50.076;8.848;2024-02-28T12:31:49;100633.63;;;8.72;79.72
23996;BME280;12207;50.076;8.848;2024-02-28T12:34:15;100621.03;;;8.51;80.36
23996;BME280;12207;50.076;8.848;2024-02-28T12:36:43;100622.22;;;8.85;80.78
23996;BME280;12207;50.076;8.848;2024-02-28T12:39:09;100619.81;;;9.11;80.11
23996;BME280;12207;50.076;8.848;2024-02-28T12:41:38;100620.19;;;9.08;79.17
23996;BME280;12207;50.076;8.848;2024-02-28T12:44:06;100621.97;;;9.22;79.77
23996;BME280;12207;50.076;8.848;2024-02-28T12:46:35;100621.47;;;9.34;78.16
23996;BME280;12207;50.076;8.848;2024-02-28T12:49:01;100612.00;;;9.59;77.43
23996;BME280;12207;50.076;8.848;2024-02-28T12:51:45;100614.06;;;9.91;76.01
23996;BME280;12207;50.076;8.848;2024-02-28T12:54:12;100613.41;;;9.55;74.63
23996;BME280;12207;50.076;8.848;2024-02-28T12:56:42;100606.28;;;9.69;74.98
23996;BME280;12207;50.076;8.848;2024-02-28T12:59:12;100605.56;;;9.81;75.86
23996;BME280;12207;50.076;8.848;2024-02-28T13:01:38;100608.53;;;9.65;74.26